Hartland, Michigan
Current Conditions -  °F | °C
As of 11:55 AM on Friday 28 Nov 2014 (Local Time) from KOZW Reporting Station
Broken Clouds Broken Clouds  
Wind Chill: -10°   Ceiling: 3300
Heat Index: -4°   Visibility: 10mi
Dew Point: -10°   Wind: 10mph
Humidity: 64%   Direction: 200°SSW
Pressure: 30.24"   Gusts: NA
Location:  42.66°N, 83.75°W
Report Text: KOZW 281655Z AUTO 20009KT 10SM BKN033 M04/M10 A3024 RMK AO2 T10391099
Loading
Personal Weather Stations






























Interactive Weather Map New forecast layout! Learn more

10-Day Weather Forecast

Advertisements
Track Severe Weather on mobile